createdAt,value
2022-09-23T03:57:29.145Z,17.00
2022-09-23T04:00:58.341Z,18.10
2022-09-23T04:04:25.479Z,19.00
2022-09-23T04:07:52.997Z,18.70
2022-09-23T04:11:19.635Z,18.00
2022-09-23T04:14:48.352Z,20.50
2022-09-23T04:18:15.045Z,21.00
2022-09-23T04:21:43.089Z,22.10
2022-09-23T04:25:11.197Z,19.70
2022-09-23T04:28:38.335Z,20.80
2022-09-23T04:32:05.980Z,20.40
2022-09-23T04:35:35.695Z,21.20
2022-09-23T04:39:07.504Z,19.80
2022-09-23T04:42:34.399Z,22.50
2022-09-23T04:46:02.811Z,21.70
2022-09-23T04:49:32.553Z,21.80
2022-09-23T04:52:59.424Z,21.30
2022-09-23T04:56:28.520Z,22.90
2022-09-23T04:59:57.536Z,22.50
2022-09-23T05:03:25.061Z,22.80
2022-09-23T05:06:51.883Z,26.50
2022-09-23T05:10:20.003Z,26.60
2022-09-23T05:13:47.834Z,24.70
2022-09-23T05:17:14.784Z,24.40
2022-09-23T05:20:41.983Z,25.50
2022-09-23T05:24:09.985Z,25.20
2022-09-23T05:27:36.776Z,25.20
2022-09-23T05:31:09.625Z,23.90
2022-09-23T05:34:37.202Z,27.00
2022-09-23T05:38:04.070Z,25.90
2022-09-23T05:41:31.332Z,24.40
2022-09-23T05:44:58.133Z,22.80
2022-09-23T05:48:24.867Z,23.00
2022-09-23T05:51:52.449Z,20.70
2022-09-23T05:55:19.856Z,22.30
2022-09-23T05:58:49.556Z,24.90
2022-09-23T06:02:16.627Z,33.60
2022-09-23T06:05:44.440Z,21.00
2022-09-23T06:09:14.567Z,23.20
2022-09-23T06:12:42.530Z,27.70
2022-09-23T06:16:11.665Z,49.20
2022-09-23T06:19:38.734Z,30.00
2022-09-23T06:23:10.778Z,21.80
2022-09-23T06:26:39.177Z,20.50
2022-09-23T06:30:07.410Z,20.40
2022-09-23T06:33:37.256Z,21.10
2022-09-23T06:37:16.561Z,38.30
2022-09-23T06:40:47.356Z,23.50
2022-09-23T06:44:14.622Z,23.90
2022-09-23T06:47:41.877Z,18.20
2022-09-23T06:51:12.445Z,17.50
2022-09-23T06:54:39.281Z,19.50
2022-09-23T06:58:06.101Z,17.20
2022-09-23T07:01:33.659Z,19.20
2022-09-23T07:05:00.650Z,17.80
2022-09-23T07:08:28.716Z,16.90
2022-09-23T07:11:55.617Z,14.10
2022-09-23T07:15:22.609Z,12.70
2022-09-23T07:18:49.666Z,12.20
2022-09-23T07:22:16.653Z,12.60
2022-09-23T07:25:43.603Z,11.30
2022-09-23T07:29:13.768Z,13.20
2022-09-23T07:32:48.249Z,12.00
2022-09-23T07:36:18.669Z,12.90
2022-09-23T07:39:46.115Z,12.20
2022-09-23T07:43:14.018Z,13.30
2022-09-23T07:46:41.112Z,13.10
2022-09-23T07:50:10.838Z,13.20
2022-09-23T07:53:38.133Z,12.50
2022-09-23T07:57:05.084Z,9.50
2022-09-23T08:00:32.835Z,11.90
2022-09-23T08:04:00.601Z,13.80
2022-09-23T08:07:27.875Z,11.90
2022-09-23T08:11:01.108Z,12.00
2022-09-23T08:14:28.129Z,11.30
2022-09-23T08:17:54.971Z,10.80
2022-09-23T08:21:23.527Z,11.40
2022-09-23T08:24:52.066Z,10.30
2022-09-23T08:28:21.418Z,9.90
2022-09-23T08:31:49.671Z,9.00
2022-09-23T08:35:17.272Z,8.70
2022-09-23T08:38:44.212Z,8.30
2022-09-23T08:42:22.417Z,7.00
2022-09-23T08:45:51.303Z,6.20
2022-09-23T08:49:25.427Z,6.70
2022-09-23T08:52:58.691Z,4.20
2022-09-23T08:56:26.599Z,3.10
2022-09-23T08:59:54.350Z,1.90
2022-09-23T09:03:27.607Z,2.70
2022-09-23T09:07:12.489Z,2.00
2022-09-23T09:10:49.678Z,2.00
2022-09-23T09:14:23.809Z,1.60
2022-09-23T09:18:01.536Z,1.50
2022-09-23T09:21:37.271Z,1.30
2022-09-23T09:25:14.524Z,1.60
2022-09-23T09:28:48.724Z,1.90
2022-09-23T09:32:25.429Z,1.50
2022-09-23T09:36:08.758Z,1.60
2022-09-23T09:39:37.552Z,2.00
2022-09-23T09:43:05.626Z,1.60
2022-09-23T09:46:56.880Z,1.30
2022-09-23T09:50:44.941Z,1.20
2022-09-23T09:54:27.059Z,1.40
2022-09-23T09:57:57.527Z,1.30
2022-09-23T10:01:37.672Z,1.00
2022-09-23T10:05:08.745Z,1.10
2022-09-23T10:08:37.819Z,1.20
2022-09-23T10:12:18.673Z,0.90
2022-09-23T10:15:46.894Z,1.00
2022-09-23T10:19:25.702Z,0.90
2022-09-23T10:22:52.924Z,0.80
2022-09-23T10:26:28.537Z,1.00
2022-09-23T10:29:59.753Z,0.90
2022-09-23T10:33:30.139Z,1.00
2022-09-23T10:37:08.782Z,1.30
2022-09-23T10:40:57.670Z,2.00
2022-09-23T10:48:22.096Z,2.50
2022-09-23T10:51:57.440Z,1.60
2022-09-23T10:55:44.516Z,2.00
2022-09-23T10:59:30.340Z,1.40
2022-09-23T11:03:32.250Z,1.80
2022-09-23T11:07:14.346Z,1.30
2022-09-23T11:10:58.017Z,1.80
2022-09-23T11:14:38.826Z,1.40
2022-09-23T11:18:32.903Z,1.70
2022-09-23T11:22:18.927Z,1.20
2022-09-23T11:25:53.734Z,1.40
2022-09-23T11:29:45.575Z,1.20
2022-09-23T11:33:37.256Z,1.70
2022-09-23T11:37:09.280Z,2.20
2022-09-23T11:40:42.365Z,2.20
2022-09-23T11:44:21.650Z,2.00
2022-09-23T11:47:53.147Z,1.40
2022-09-23T11:51:28.454Z,1.50
2022-09-23T11:55:03.854Z,1.70
2022-09-23T11:58:42.040Z,2.00
2022-09-23T12:02:22.924Z,2.20
2022-09-23T12:06:00.934Z,1.90
2022-09-23T12:09:57.338Z,2.90
2022-09-23T12:13:30.652Z,2.30
2022-09-23T12:17:23.606Z,2.00
2022-09-23T12:21:03.978Z,1.80
2022-09-23T12:24:52.150Z,1.80
2022-09-23T12:28:23.489Z,1.40
2022-09-23T12:31:50.440Z,2.00
2022-09-23T12:35:33.968Z,2.00
2022-09-23T12:39:06.023Z,2.00
2022-09-23T12:42:33.426Z,2.30
2022-09-23T12:46:21.722Z,2.00
2022-09-23T12:49:49.589Z,2.00
2022-09-23T12:53:54.657Z,2.10
2022-09-23T12:57:42.996Z,2.20
2022-09-23T13:01:19.561Z,2.50
2022-09-23T13:05:18.450Z,1.80
2022-09-23T13:08:48.024Z,1.90
2022-09-23T13:12:22.370Z,2.00
2022-09-23T13:15:50.521Z,2.10
2022-09-23T13:19:53.657Z,1.90
2022-09-23T13:23:24.996Z,1.80
2022-09-23T13:26:54.579Z,1.70
2022-09-23T13:34:00.932Z,1.80
2022-09-23T13:37:43.527Z,1.40
2022-09-23T13:41:16.533Z,3.10
2022-09-23T13:44:44.282Z,1.90
2022-09-23T13:48:16.221Z,1.90
2022-09-23T13:51:47.284Z,1.60
2022-09-23T13:55:32.412Z,1.20
2022-09-23T13:59:20.782Z,1.00
2022-09-23T14:02:47.886Z,1.40
2022-09-23T14:06:17.164Z,1.30
2022-09-23T14:09:48.159Z,1.30
2022-09-23T14:13:25.676Z,1.90
2022-09-23T14:16:56.229Z,1.20
2022-09-23T14:23:49.705Z,1.70
2022-09-23T14:27:20.261Z,1.60
2022-09-23T14:30:51.153Z,1.70
2022-09-23T14:34:51.113Z,1.50
2022-09-23T14:38:45.191Z,1.30
2022-09-23T14:42:14.079Z,1.70
2022-09-23T14:49:16.281Z,1.30
2022-09-23T14:52:51.437Z,2.00
2022-09-23T14:56:25.274Z,1.10
2022-09-23T14:59:55.328Z,10.90
2022-09-23T15:03:22.677Z,2.20
2022-09-23T15:06:54.032Z,2.20
2022-09-23T15:10:24.694Z,1.80
2022-09-23T15:13:53.802Z,1.40
2022-09-23T15:17:32.741Z,1.20
2022-09-23T15:21:03.851Z,1.80
2022-09-23T15:24:41.559Z,1.70
2022-09-23T15:28:23.446Z,1.80
2022-09-23T15:31:50.699Z,1.70
2022-09-23T15:35:21.190Z,1.80
2022-09-23T15:38:48.894Z,3.70
2022-09-23T15:42:18.365Z,2.30
2022-09-23T15:45:48.236Z,2.80
2022-09-23T15:49:23.425Z,3.40
2022-09-23T15:52:50.582Z,3.10
2022-09-23T15:56:18.033Z,3.50
2022-09-23T15:59:45.025Z,3.00
2022-09-23T16:03:15.505Z,3.50
2022-09-23T16:06:44.572Z,3.90
2022-09-23T16:10:12.320Z,3.60
2022-09-23T16:13:39.037Z,3.40
2022-09-23T16:17:06.619Z,3.80
2022-09-23T16:20:35.891Z,3.90
2022-09-23T16:24:04.587Z,5.00
2022-09-23T16:27:31.656Z,6.50
2022-09-23T16:31:00.162Z,6.10
2022-09-23T16:34:27.894Z,9.80
2022-09-23T16:37:55.806Z,12.30
2022-09-23T16:41:23.491Z,11.10
2022-09-23T16:44:50.265Z,12.20
2022-09-23T16:48:19.709Z,13.30
2022-09-23T16:51:46.583Z,12.70
2022-09-23T16:55:15.635Z,13.10
2022-09-23T16:58:43.109Z,12.70
2022-09-23T17:02:30.803Z,12.20
2022-09-23T17:05:58.369Z,13.60
2022-09-23T17:09:29.019Z,24.50
2022-09-23T17:12:56.108Z,23.30
2022-09-23T17:16:29.986Z,28.10
2022-09-23T17:19:57.181Z,52.00
2022-09-23T17:23:24.823Z,96.60
2022-09-23T17:26:55.443Z,112.60
2022-09-23T17:30:27.360Z,64.40
2022-09-23T17:33:58.459Z,31.60
2022-09-23T17:37:29.141Z,25.50
2022-09-23T17:40:59.602Z,21.60
2022-09-23T17:44:26.613Z,21.40
2022-09-23T17:47:54.945Z,21.00
2022-09-23T17:51:22.539Z,22.00
2022-09-23T17:54:49.680Z,25.70
2022-09-23T17:58:17.215Z,24.90
2022-09-23T18:01:44.224Z,23.60
2022-09-23T18:05:11.859Z,24.10
2022-09-23T18:08:39.453Z,23.00
2022-09-23T18:12:06.656Z,23.50
2022-09-23T18:15:35.811Z,22.40
2022-09-23T18:19:04.888Z,23.40
2022-09-23T18:22:32.328Z,22.10
2022-09-23T18:25:59.813Z,22.00
2022-09-23T18:29:28.986Z,21.60
2022-09-23T18:32:55.797Z,23.60
2022-09-23T18:36:23.965Z,24.10
2022-09-23T18:39:54.242Z,22.20
2022-09-23T18:43:25.541Z,20.80
2022-09-23T18:46:52.955Z,20.10
2022-09-23T18:50:36.697Z,20.10
2022-09-23T18:54:05.889Z,19.30
2022-09-23T18:57:33.125Z,19.40
2022-09-23T19:01:07.003Z,21.30
2022-09-23T19:04:34.210Z,25.80
2022-09-23T19:08:01.352Z,26.80
2022-09-23T19:11:28.489Z,26.20
2022-09-23T19:14:56.180Z,26.20
2022-09-23T19:18:23.175Z,24.80
2022-09-23T19:21:50.537Z,25.10
2022-09-23T19:25:18.262Z,20.70
2022-09-23T19:28:51.055Z,20.50
2022-09-23T19:32:18.318Z,19.70
2022-09-23T19:35:51.359Z,18.20
2022-09-23T19:39:22.295Z,18.80
2022-09-23T19:42:49.415Z,18.90
2022-09-23T19:46:17.129Z,18.40
2022-09-23T19:49:44.321Z,18.90
2022-09-23T19:53:11.556Z,19.80
2022-09-23T19:56:39.234Z,22.40
2022-09-23T20:00:08.387Z,23.70
2022-09-23T20:03:39.969Z,30.00
2022-09-23T20:07:08.402Z,25.30
2022-09-23T20:10:35.176Z,24.80
2022-09-23T20:14:04.947Z,21.70
2022-09-23T20:17:36.596Z,20.90
2022-09-23T20:21:04.007Z,21.90
2022-09-23T20:24:31.976Z,21.90
2022-09-23T20:27:58.655Z,21.40
2022-09-23T20:31:26.440Z,23.30
2022-09-23T20:34:53.846Z,25.40
2022-09-23T20:38:20.646Z,28.30
2022-09-23T20:41:48.251Z,30.80
2022-09-23T20:45:16.916Z,26.60
2022-09-23T20:48:46.783Z,23.40
2022-09-23T20:52:14.967Z,24.00
2022-09-23T20:55:51.789Z,23.40
2022-09-23T20:59:18.799Z,20.90
2022-09-23T21:02:47.611Z,23.20
2022-09-23T21:06:16.443Z,20.70
2022-09-23T21:09:43.858Z,19.50
2022-09-23T21:13:10.833Z,19.90
2022-09-23T21:16:37.993Z,21.20
2022-09-23T21:20:06.124Z,24.50
2022-09-23T21:23:34.820Z,30.10
2022-09-23T21:27:03.613Z,31.50
2022-09-23T21:30:32.142Z,33.70
2022-09-23T21:34:01.369Z,32.40
2022-09-23T21:37:28.950Z,33.80
2022-09-23T21:41:01.689Z,34.00
2022-09-23T21:44:28.739Z,32.70
2022-09-23T21:47:56.114Z,36.30
2022-09-23T21:51:25.514Z,33.80
2022-09-23T21:54:53.055Z,35.90
2022-09-23T21:58:19.893Z,36.60
2022-09-23T22:01:54.048Z,34.90
2022-09-23T22:05:22.167Z,33.80
2022-09-23T22:08:50.136Z,29.90
2022-09-23T22:12:18.367Z,26.40
2022-09-23T22:15:45.649Z,25.10
2022-09-23T22:19:15.051Z,23.20
2022-09-23T22:22:42.306Z,23.20
2022-09-23T22:26:10.006Z,24.30
2022-09-23T22:29:54.734Z,23.90
2022-09-23T22:33:22.090Z,22.30
2022-09-23T22:36:49.238Z,23.60
2022-09-23T22:40:18.250Z,21.60
2022-09-23T22:43:45.075Z,21.80
2022-09-23T22:47:12.498Z,21.00
2022-09-23T22:50:41.506Z,20.40
